Forsyth, Illinois
Current Conditions -  °F | °C
As of 12:34 PM on Thursday 27 Nov 2014 (Local Time) from KDEC Reporting Station
Light Snow Light Snow  
Wind Chill: 19°   Ceiling: 1300
Heat Index: 28°   Visibility: 3mi
Dew Point: 23°   Wind: 10mph
Humidity: 81%   Direction: 290°WNW
Pressure: 30.41"   Gusts: NA
Location:  39.93°N, 88.95°W
Report Text: KDEC 271834Z 29009KT 3SM -SN BKN013 BKN018 OVC035 M02/M05 A3041 RMK AO2 P0000 T10221050
Loading
Personal Weather Stations






























Interactive Weather Map New forecast layout! Learn more

10-Day Weather Forecast

Advertisements
Track Severe Weather on mobile